createdAt,value
2017-08-18T00:00:52.043Z,4.20
2017-08-18T00:03:20.115Z,3.50
2017-08-18T00:05:48.176Z,3.80
2017-08-18T00:08:17.007Z,3.90
2017-08-18T00:10:45.070Z,4.43
2017-08-18T00:13:13.139Z,4.30
2017-08-18T00:15:41.211Z,4.40
2017-08-18T00:18:09.263Z,4.17
2017-08-18T00:20:37.351Z,4.17
2017-08-18T00:23:05.420Z,4.43
2017-08-18T00:25:33.536Z,4.10
2017-08-18T00:28:02.338Z,5.83
2017-08-18T00:30:30.378Z,5.03
2017-08-18T00:32:59.215Z,3.77
2017-08-18T00:35:27.278Z,5.10
2017-08-18T00:37:55.358Z,4.30
2017-08-18T00:40:23.414Z,4.50
2017-08-18T00:42:51.475Z,3.57
2017-08-18T00:45:19.549Z,4.30
2017-08-18T00:47:47.625Z,3.87
2017-08-18T00:50:15.668Z,7.23
2017-08-18T00:52:43.734Z,4.30
2017-08-18T00:55:12.595Z,4.83
2017-08-18T00:57:40.649Z,4.07
2017-08-18T01:00:08.717Z,3.50
2017-08-18T01:02:36.765Z,4.17
2017-08-18T01:05:04.805Z,3.87
2017-08-18T01:07:33.654Z,3.80
2017-08-18T01:10:01.751Z,4.10
2017-08-18T01:12:29.814Z,3.43
2017-08-18T01:14:57.879Z,3.60
2017-08-18T01:17:25.954Z,6.70
2017-08-18T01:19:54.015Z,4.10
2017-08-18T01:22:22.099Z,4.03
2017-08-18T01:24:50.192Z,6.93
2017-08-18T01:27:19.027Z,4.47
2017-08-18T01:29:47.079Z,4.13
2017-08-18T01:32:15.187Z,4.10
2017-08-18T01:34:43.245Z,3.70
2017-08-18T01:37:11.307Z,3.83
2017-08-18T01:39:39.381Z,3.40
2017-08-18T01:42:07.443Z,3.83
2017-08-18T01:44:35.503Z,3.90
2017-08-18T01:47:03.568Z,4.23
2017-08-18T01:49:31.642Z,4.20
2017-08-18T01:51:59.696Z,4.00
2017-08-18T01:54:27.764Z,3.87
2017-08-18T01:56:56.616Z,4.33
2017-08-18T01:59:25.210Z,4.90
2017-08-18T02:01:53.279Z,3.93
2017-08-18T02:04:21.338Z,3.40
2017-08-18T02:06:49.411Z,5.77
2017-08-18T02:09:17.490Z,4.07
2017-08-18T02:11:45.534Z,3.57
2017-08-18T02:14:14.382Z,6.33
2017-08-18T02:16:42.440Z,5.87
2017-08-18T02:19:10.535Z,5.80
2017-08-18T02:21:38.598Z,3.97
2017-08-18T02:24:06.692Z,3.73
2017-08-18T02:26:34.766Z,4.20
2017-08-18T02:29:02.810Z,4.70
2017-08-18T02:31:30.909Z,3.87
2017-08-18T02:33:58.953Z,5.23
2017-08-18T02:36:27.006Z,3.97
2017-08-18T02:38:55.091Z,3.90
2017-08-18T02:41:23.139Z,3.90
2017-08-18T02:43:51.209Z,4.10
2017-08-18T02:46:20.018Z,3.60
2017-08-18T02:48:48.071Z,3.13
2017-08-18T02:51:16.167Z,4.20
2017-08-18T02:53:44.216Z,6.40
2017-08-18T02:56:12.283Z,6.57
2017-08-18T02:58:40.366Z,4.00
2017-08-18T03:01:08.421Z,4.37
2017-08-18T03:03:36.495Z,5.00
2017-08-18T03:06:04.564Z,3.60
2017-08-18T03:08:32.635Z,3.60
2017-08-18T03:11:00.722Z,3.50
2017-08-18T03:13:29.542Z,4.10
2017-08-18T03:15:57.623Z,4.20
2017-08-18T03:18:25.691Z,3.70
2017-08-18T03:20:53.768Z,4.07
2017-08-18T03:23:21.831Z,4.10
2017-08-18T03:25:49.936Z,4.20
2017-08-18T03:28:18.006Z,4.40
2017-08-18T03:30:46.057Z,4.40
2017-08-18T03:33:14.131Z,5.33
2017-08-18T03:35:42.183Z,3.53
2017-08-18T03:38:10.256Z,5.30
2017-08-18T03:40:38.325Z,5.47
2017-08-18T03:43:06.387Z,3.80
2017-08-18T03:45:34.450Z,6.90
2017-08-18T03:48:02.506Z,5.30
2017-08-18T03:50:30.593Z,4.50
2017-08-18T03:52:58.643Z,8.40
2017-08-18T03:55:27.481Z,10.87
2017-08-18T03:57:55.555Z,5.33
2017-08-18T04:00:23.627Z,8.13
2017-08-18T04:02:51.695Z,6.33
2017-08-18T04:05:19.763Z,7.27
2017-08-18T04:07:47.840Z,8.67
2017-08-18T04:10:15.904Z,12.53
2017-08-18T04:12:43.993Z,11.67
2017-08-18T04:15:12.055Z,9.70
2017-08-18T04:17:40.126Z,9.20
2017-08-18T04:20:08.212Z,8.37
2017-08-18T04:22:36.287Z,6.10
2017-08-18T04:25:04.339Z,6.83
2017-08-18T04:27:32.404Z,6.17
2017-08-18T04:30:00.470Z,8.07
2017-08-18T04:32:28.532Z,6.83
2017-08-18T04:34:56.599Z,10.00
2017-08-18T04:37:24.658Z,6.27
2017-08-18T04:39:52.723Z,6.10
2017-08-18T04:42:20.791Z,8.67
2017-08-18T04:44:48.858Z,4.23
2017-08-18T04:47:16.943Z,8.70
2017-08-18T04:49:45.003Z,6.07
2017-08-18T04:52:13.074Z,10.00
2017-08-18T04:54:41.152Z,9.00
2017-08-18T04:57:09.341Z,10.40
2017-08-18T04:59:37.415Z,11.10
2017-08-18T05:02:05.486Z,16.43
2017-08-18T05:04:33.580Z,19.77
2017-08-18T05:07:01.650Z,13.33
2017-08-18T05:09:29.703Z,11.63
2017-08-18T05:11:57.815Z,11.00
2017-08-18T05:14:25.882Z,15.93
2017-08-18T05:16:53.965Z,12.67
2017-08-18T05:19:22.039Z,8.63
2017-08-18T05:21:50.108Z,5.83
2017-08-18T05:24:18.154Z,7.37
2017-08-18T05:26:46.219Z,5.90
2017-08-18T05:29:14.277Z,10.57
2017-08-18T05:31:45.945Z,11.10
2017-08-18T05:34:14.426Z,9.13
2017-08-18T05:36:42.530Z,8.70
2017-08-18T05:39:10.603Z,5.80
2017-08-18T05:41:38.671Z,9.10
2017-08-18T05:44:06.747Z,8.70
2017-08-18T05:46:34.818Z,8.33
2017-08-18T05:49:02.879Z,6.23
2017-08-18T05:51:30.935Z,6.10
2017-08-18T05:53:59.031Z,12.00
2017-08-18T05:56:27.103Z,6.87
2017-08-18T05:58:55.171Z,9.83
2017-08-18T06:01:23.263Z,10.20
2017-08-18T06:03:52.099Z,8.37
2017-08-18T06:06:20.215Z,5.90
2017-08-18T06:08:48.278Z,5.67
2017-08-18T06:11:16.343Z,6.40
2017-08-18T06:13:44.419Z,7.43
2017-08-18T06:16:13.250Z,5.20
2017-08-18T06:18:41.312Z,6.00
2017-08-18T06:21:09.432Z,10.73
2017-08-18T06:23:37.498Z,9.73
2017-08-18T06:26:05.567Z,4.77
2017-08-18T06:28:33.646Z,6.50
2017-08-18T06:31:01.732Z,11.53
2017-08-18T06:33:30.559Z,9.70
2017-08-18T06:38:32.991Z,7.43
2017-08-18T06:41:01.055Z,6.53
2017-08-18T06:43:29.124Z,8.30
2017-08-18T06:45:57.214Z,8.50
2017-08-18T06:48:25.283Z,8.17
2017-08-18T06:50:53.353Z,10.27
2017-08-18T06:53:21.430Z,10.87
2017-08-18T06:55:49.488Z,6.93
2017-08-18T06:58:17.564Z,8.30
2017-08-18T07:00:45.653Z,12.70
2017-08-18T07:03:13.711Z,6.83
2017-08-18T07:05:41.779Z,8.90
2017-08-18T07:08:09.859Z,11.00
2017-08-18T07:10:38.702Z,9.07
2017-08-18T07:13:06.792Z,8.20
2017-08-18T07:15:34.874Z,7.17
2017-08-18T07:18:02.967Z,10.70
2017-08-18T07:20:31.019Z,10.47
2017-08-18T07:22:59.116Z,14.27
2017-08-18T07:25:27.168Z,7.70
2017-08-18T07:27:55.251Z,9.73
2017-08-18T07:30:23.328Z,8.47
2017-08-18T07:32:51.380Z,11.33
2017-08-18T07:35:19.463Z,7.60
2017-08-18T07:37:47.568Z,10.00
2017-08-18T07:40:15.626Z,6.50
2017-08-18T07:42:43.736Z,15.27
2017-08-18T07:45:12.580Z,10.20
2017-08-18T07:47:40.637Z,7.47
2017-08-18T07:50:08.716Z,6.70
2017-08-18T07:52:36.765Z,5.47
2017-08-18T07:55:05.403Z,7.57
2017-08-18T07:57:33.483Z,6.43
2017-08-18T08:00:02.348Z,5.67
2017-08-18T08:02:30.393Z,6.73
2017-08-18T08:04:58.474Z,6.10
2017-08-18T08:07:26.536Z,6.00
2017-08-18T08:09:54.603Z,5.40
2017-08-18T08:12:23.401Z,5.40
2017-08-18T08:14:51.675Z,4.67
2017-08-18T08:17:19.764Z,5.10
2017-08-18T08:19:47.832Z,4.87
2017-08-18T08:22:15.906Z,5.67
2017-08-18T08:24:43.975Z,4.83
2017-08-18T08:27:12.026Z,5.20
2017-08-18T08:29:40.098Z,5.80
2017-08-18T08:32:08.234Z,4.53
2017-08-18T08:34:36.308Z,3.93
2017-08-18T08:37:04.387Z,5.23
2017-08-18T08:39:32.627Z,4.47
2017-08-18T08:42:00.696Z,4.90
2017-08-18T08:44:28.779Z,4.80
2017-08-18T08:46:56.852Z,5.57
2017-08-18T08:49:24.924Z,6.60
2017-08-18T08:51:52.995Z,5.03
2017-08-18T08:54:21.058Z,5.30
2017-08-18T08:56:49.130Z,5.57
2017-08-18T08:59:17.286Z,5.30
2017-08-18T09:01:45.324Z,4.53
2017-08-18T09:04:13.395Z,6.00
2017-08-18T09:06:41.458Z,5.23
2017-08-18T09:09:09.561Z,5.80
2017-08-18T09:11:37.648Z,5.20
2017-08-18T09:14:05.726Z,6.73
2017-08-18T09:16:33.802Z,3.83
2017-08-18T09:19:01.900Z,4.47
2017-08-18T09:21:29.946Z,4.53
2017-08-18T09:23:58.145Z,4.00
2017-08-18T09:26:26.292Z,5.93
2017-08-18T09:28:54.384Z,4.37
2017-08-18T09:31:22.454Z,8.77
2017-08-18T09:33:50.549Z,6.50
2017-08-18T09:36:19.376Z,3.50
2017-08-18T09:38:47.427Z,3.47
2017-08-18T09:41:15.499Z,4.37
2017-08-18T09:43:43.582Z,3.47
2017-08-18T09:46:11.671Z,3.87
2017-08-18T09:48:51.662Z,3.60
2017-08-18T09:51:32.477Z,7.07
2017-08-18T09:54:12.511Z,3.10
2017-08-18T10:10:29.352Z,5.00
2017-08-18T10:12:58.112Z,4.07
2017-08-18T10:15:26.175Z,2.60
2017-08-18T10:17:54.611Z,4.47
2017-08-18T10:20:23.905Z,3.67
2017-08-18T10:22:51.964Z,2.80
2017-08-18T10:25:20.040Z,4.23
2017-08-18T10:27:48.120Z,2.93
2017-08-18T10:30:16.179Z,3.83
2017-08-18T10:32:44.243Z,2.60
2017-08-18T10:35:12.312Z,3.00
2017-08-18T10:37:40.455Z,3.43
2017-08-18T10:40:08.633Z,3.00
2017-08-18T10:55:36.737Z,8.00
2017-08-18T10:58:04.803Z,3.67
2017-08-18T11:00:32.876Z,4.83
2017-08-18T11:03:00.931Z,3.20
2017-08-18T11:05:28.990Z,3.07
2017-08-18T11:07:57.072Z,2.83
2017-08-18T11:10:25.157Z,3.00
2017-08-18T11:12:53.230Z,2.70
2017-08-18T11:15:21.290Z,5.43
2017-08-18T11:17:49.392Z,2.93
2017-08-18T11:20:17.438Z,2.53
2017-08-18T11:22:46.269Z,2.60
2017-08-18T11:25:14.347Z,3.17
2017-08-18T11:27:42.418Z,2.77
2017-08-18T11:30:10.519Z,2.40
2017-08-18T11:32:38.587Z,3.53
2017-08-18T11:35:06.691Z,4.47
2017-08-18T11:37:36.267Z,4.90
2017-08-18T11:40:04.335Z,3.10
2017-08-18T11:42:32.419Z,2.60
2017-08-18T11:45:00.504Z,3.37
2017-08-18T11:47:28.583Z,2.80
2017-08-18T11:49:57.412Z,2.80
2017-08-18T11:52:25.483Z,5.23
2017-08-18T11:54:53.633Z,3.20
2017-08-18T11:57:22.443Z,3.87
2017-08-18T11:59:50.539Z,5.73
2017-08-18T12:02:18.610Z,3.40
2017-08-18T12:04:46.687Z,2.77
2017-08-18T12:07:14.838Z,3.50
2017-08-18T12:09:42.916Z,5.03
2017-08-18T12:12:11.004Z,3.20
2017-08-18T12:14:39.086Z,3.30
2017-08-18T12:17:07.182Z,3.47
2017-08-18T12:19:35.312Z,3.20
2017-08-18T12:22:03.395Z,3.60
2017-08-18T12:24:31.451Z,3.53
2017-08-18T12:27:01.041Z,7.83
2017-08-18T12:29:29.124Z,5.67
2017-08-18T12:31:57.297Z,4.60
2017-08-18T12:34:25.371Z,3.57
2017-08-18T12:36:53.442Z,3.10
2017-08-18T12:39:21.582Z,3.30
2017-08-18T12:41:49.650Z,3.30
2017-08-18T12:44:17.714Z,4.90
2017-08-18T12:46:45.796Z,5.07
2017-08-18T12:49:13.850Z,5.43
2017-08-18T12:51:41.939Z,4.80
2017-08-18T12:54:10.038Z,2.93
2017-08-18T12:56:38.991Z,5.30
2017-08-18T12:59:07.051Z,3.77
2017-08-18T13:01:35.115Z,3.30
2017-08-18T13:04:03.192Z,5.10
2017-08-18T13:06:31.263Z,3.40
2017-08-18T13:08:59.345Z,4.10
2017-08-18T13:11:27.414Z,4.37
2017-08-18T13:13:55.480Z,4.13
2017-08-18T13:16:23.551Z,3.83
2017-08-18T13:18:51.616Z,3.60
2017-08-18T13:21:19.700Z,4.00
2017-08-18T13:23:47.740Z,8.03
2017-08-18T13:26:16.585Z,3.30
2017-08-18T13:28:44.654Z,3.30
2017-08-18T13:31:12.739Z,5.03
2017-08-18T13:33:40.787Z,2.60
2017-08-18T13:36:08.858Z,2.40
2017-08-18T13:38:36.972Z,4.80
2017-08-18T13:41:06.155Z,2.20
2017-08-18T13:43:34.240Z,2.80
2017-08-18T13:46:02.290Z,3.40
2017-08-18T13:48:30.358Z,2.30
2017-08-18T13:50:58.419Z,2.90
2017-08-18T13:53:26.496Z,2.70
2017-08-18T13:55:54.555Z,3.07
2017-08-18T13:58:22.637Z,2.60
2017-08-18T14:00:53.027Z,3.93
2017-08-18T14:03:23.098Z,2.83
2017-08-18T14:05:51.157Z,2.83
2017-08-18T14:08:19.239Z,4.90
2017-08-18T14:10:47.287Z,8.70
2017-08-18T14:13:15.360Z,8.17
2017-08-18T14:15:43.439Z,5.90
2017-08-18T14:18:11.515Z,5.90
2017-08-18T14:20:43.217Z,5.37
2017-08-18T14:23:11.296Z,4.67
2017-08-18T14:25:45.769Z,4.43
2017-08-18T14:28:13.851Z,3.97
2017-08-18T14:30:41.975Z,5.30
2017-08-18T14:33:10.185Z,5.80
2017-08-18T14:35:38.254Z,5.30
2017-08-18T14:38:06.416Z,7.30
2017-08-18T14:40:34.545Z,10.80
2017-08-18T14:43:03.379Z,7.53
2017-08-18T14:45:31.452Z,6.13
2017-08-18T14:47:59.498Z,6.23
2017-08-18T14:50:27.587Z,10.07
2017-08-18T14:52:55.651Z,7.97
2017-08-18T14:55:23.712Z,7.20
2017-08-18T14:57:51.774Z,6.83
2017-08-18T15:00:19.842Z,6.63
2017-08-18T15:02:47.951Z,5.83
2017-08-18T15:05:16.021Z,5.67
2017-08-18T15:07:44.088Z,5.57
2017-08-18T15:10:12.163Z,5.37
2017-08-18T15:12:40.315Z,4.20
2017-08-18T15:15:08.371Z,5.40
2017-08-18T15:17:37.215Z,5.23
2017-08-18T15:20:05.308Z,4.90
2017-08-18T15:22:33.409Z,5.07
2017-08-18T15:25:01.470Z,4.80
2017-08-18T15:27:29.527Z,4.70
2017-08-18T15:29:57.603Z,5.40
2017-08-18T15:32:25.821Z,7.17
2017-08-18T15:34:53.896Z,5.30
2017-08-18T15:37:21.983Z,5.57
2017-08-18T15:39:50.063Z,6.27
2017-08-18T15:42:18.138Z,6.10
2017-08-18T15:44:46.974Z,5.20
2017-08-18T15:47:15.024Z,7.13
2017-08-18T15:49:43.071Z,5.87
2017-08-18T15:52:11.906Z,6.30
2017-08-18T15:54:39.962Z,6.50
2017-08-18T15:57:08.023Z,7.03
2017-08-18T15:59:36.094Z,11.00
2017-08-18T16:02:04.188Z,7.60
2017-08-18T16:04:32.246Z,8.30
2017-08-18T16:07:00.921Z,9.77
2017-08-18T16:09:28.995Z,10.00
2017-08-18T16:11:57.082Z,7.37
2017-08-18T16:14:25.139Z,6.47
2017-08-18T16:16:53.211Z,6.33
2017-08-18T16:19:21.284Z,8.60
2017-08-18T16:21:49.889Z,5.27
2017-08-18T16:24:18.021Z,5.00
2017-08-18T16:26:46.089Z,5.03
2017-08-18T16:29:14.162Z,5.23
2017-08-18T16:31:42.549Z,4.93
2017-08-18T16:34:11.554Z,5.10
2017-08-18T16:36:40.486Z,5.10
2017-08-18T16:39:08.548Z,6.53
2017-08-18T16:41:37.183Z,5.97
2017-08-18T16:44:05.343Z,9.30
2017-08-18T16:46:36.821Z,7.80
2017-08-18T16:49:04.911Z,8.90
2017-08-18T16:51:32.986Z,7.67
2017-08-18T16:54:01.046Z,4.77
2017-08-18T16:56:29.214Z,4.77
2017-08-18T16:58:57.275Z,4.80
2017-08-18T17:01:25.342Z,4.57
2017-08-18T17:03:53.414Z,4.57
2017-08-18T17:06:21.523Z,4.07
2017-08-18T17:08:49.607Z,5.63
2017-08-18T17:11:17.683Z,4.93
2017-08-18T17:13:45.767Z,5.47
2017-08-18T17:16:14.599Z,5.97
2017-08-18T17:18:42.679Z,7.20
2017-08-18T17:21:10.738Z,5.93
2017-08-18T17:23:38.819Z,5.93
2017-08-18T17:26:06.892Z,5.00
2017-08-18T17:28:34.946Z,6.03
2017-08-18T17:31:03.013Z,5.13
2017-08-18T17:33:31.083Z,6.03
2017-08-18T17:35:59.135Z,9.47
2017-08-18T17:38:27.975Z,6.40
2017-08-18T17:40:56.031Z,8.77
2017-08-18T17:43:24.106Z,8.80
2017-08-18T17:45:52.190Z,7.33
2017-08-18T17:48:20.339Z,7.50
2017-08-18T17:50:49.159Z,7.13
2017-08-18T17:53:17.255Z,7.27
2017-08-18T17:55:45.339Z,5.90
2017-08-18T17:58:13.382Z,6.63
2017-08-18T18:00:41.456Z,6.60
2017-08-18T18:03:09.518Z,8.67
2017-08-18T18:05:37.575Z,5.03
2017-08-18T18:08:05.667Z,6.27
2017-08-18T18:10:33.742Z,9.17
2017-08-18T18:13:01.836Z,12.43
2017-08-18T18:15:30.666Z,7.17
2017-08-18T18:17:58.736Z,8.70
2017-08-18T18:20:26.822Z,6.07
2017-08-18T18:22:54.884Z,6.57
2017-08-18T18:25:22.959Z,7.20
2017-08-18T18:27:51.011Z,7.10
2017-08-18T18:30:19.854Z,6.83
2017-08-18T18:32:47.975Z,7.60
2017-08-18T18:35:15.998Z,7.30
2017-08-18T18:37:44.076Z,7.50
2017-08-18T18:40:12.162Z,7.53
2017-08-18T18:42:40.218Z,7.53
2017-08-18T18:45:08.289Z,7.00
2017-08-18T18:47:36.353Z,6.27
2017-08-18T18:50:04.415Z,5.87
2017-08-18T18:52:32.482Z,7.03
2017-08-18T18:55:00.604Z,9.47
2017-08-18T18:57:29.443Z,6.90
2017-08-18T18:59:57.503Z,6.33
2017-08-18T19:02:25.575Z,6.93
2017-08-18T19:04:53.639Z,6.67
2017-08-18T19:07:21.709Z,9.63
2017-08-18T19:09:49.786Z,15.37
2017-08-18T19:12:17.866Z,11.03
2017-08-18T19:14:45.951Z,18.37
2017-08-18T19:17:14.023Z,16.90
2017-08-18T19:19:42.092Z,13.47
2017-08-18T19:22:10.191Z,15.67
2017-08-18T19:24:38.266Z,19.80
2017-08-18T19:27:06.383Z,14.47
2017-08-18T19:29:34.471Z,13.80
2017-08-18T19:32:03.320Z,10.60
2017-08-18T19:34:31.395Z,9.33
2017-08-18T19:36:59.509Z,10.30
2017-08-18T19:39:28.363Z,9.30
2017-08-18T19:41:56.543Z,9.40
2017-08-18T19:44:24.618Z,9.57
2017-08-18T19:46:52.696Z,8.67
2017-08-18T19:49:20.767Z,10.60
2017-08-18T19:51:48.842Z,8.67
2017-08-18T19:54:16.903Z,8.67
2017-08-18T19:56:44.982Z,10.73
2017-08-18T19:59:13.023Z,9.97
2017-08-18T20:01:41.090Z,10.80
2017-08-18T20:04:09.300Z,9.37
2017-08-18T20:06:37.374Z,9.10
2017-08-18T20:09:05.444Z,9.73
2017-08-18T20:11:33.523Z,10.23
2017-08-18T20:14:01.595Z,8.93
2017-08-18T20:16:30.433Z,9.90
2017-08-18T20:18:58.511Z,10.23
2017-08-18T20:21:26.578Z,9.47
2017-08-18T20:23:54.652Z,9.70
2017-08-18T20:26:22.722Z,8.87
2017-08-18T20:28:50.814Z,9.77
2017-08-18T20:31:19.375Z,12.00
2017-08-18T20:33:47.483Z,12.97
2017-08-18T20:36:16.385Z,8.37
2017-08-18T20:38:44.447Z,8.20
2017-08-18T20:41:12.526Z,7.70
2017-08-18T20:43:40.603Z,8.00
2017-08-18T20:46:08.674Z,7.00
2017-08-18T20:48:36.742Z,10.43
2017-08-18T20:51:04.817Z,5.17
2017-08-18T20:53:33.663Z,9.13
2017-08-18T20:56:01.717Z,4.67
2017-08-18T20:58:29.831Z,3.70
2017-08-18T21:00:57.910Z,7.03
2017-08-18T21:03:25.982Z,6.83
2017-08-18T21:05:54.051Z,8.60
2017-08-18T21:08:22.128Z,5.33
2017-08-18T21:10:50.226Z,5.80
2017-08-18T21:13:18.273Z,5.57
2017-08-18T21:15:47.135Z,4.80
2017-08-18T21:18:15.186Z,4.03
2017-08-18T21:20:43.291Z,4.60
2017-08-18T21:23:11.355Z,4.10
2017-08-18T21:25:39.406Z,5.93
2017-08-18T21:28:07.480Z,5.80
2017-08-18T21:30:35.555Z,6.50
2017-08-18T21:33:03.654Z,6.07
2017-08-18T21:35:31.727Z,3.87
2017-08-18T21:37:59.794Z,10.37
2017-08-18T21:40:27.866Z,11.63
2017-08-18T21:42:55.946Z,5.70
2017-08-18T21:45:24.014Z,5.60
2017-08-18T21:47:52.080Z,4.87
2017-08-18T21:50:20.734Z,6.33
2017-08-18T21:52:48.818Z,5.53
2017-08-18T21:55:16.903Z,4.57
2017-08-18T21:57:44.959Z,3.93
2017-08-18T22:00:13.065Z,6.07
2017-08-18T22:02:41.100Z,5.03
2017-08-18T22:05:09.154Z,5.90
2017-08-18T22:07:37.227Z,5.00
2017-08-18T22:10:05.317Z,4.90
2017-08-18T22:12:33.378Z,6.03
2017-08-18T22:15:01.444Z,6.50
2017-08-18T22:17:29.545Z,6.93
2017-08-18T22:19:57.583Z,6.90
2017-08-18T22:22:26.099Z,6.23
2017-08-18T22:24:54.150Z,8.10
2017-08-18T22:27:22.202Z,5.97
2017-08-18T22:29:50.288Z,7.37
2017-08-18T22:32:18.343Z,8.13
2017-08-18T22:34:46.418Z,9.47
2017-08-18T22:37:14.490Z,10.97
2017-08-18T22:39:42.563Z,8.07
2017-08-18T22:42:10.659Z,6.40
2017-08-18T22:44:38.731Z,10.10
2017-08-18T22:47:06.910Z,6.10
2017-08-18T22:49:34.976Z,7.90
2017-08-18T22:52:03.107Z,5.47
2017-08-18T22:54:31.171Z,5.93
2017-08-18T22:56:59.214Z,7.73
2017-08-18T22:59:27.321Z,4.20
2017-08-18T23:01:55.391Z,4.00
2017-08-18T23:04:23.455Z,7.50
2017-08-18T23:06:51.519Z,8.70
2017-08-18T23:09:19.582Z,10.00
2017-08-18T23:11:47.655Z,8.07
2017-08-18T23:14:15.692Z,5.10
2017-08-18T23:16:43.755Z,5.63
2017-08-18T23:19:11.824Z,6.80
2017-08-18T23:21:39.889Z,8.50
2017-08-18T23:24:07.948Z,8.10
2017-08-18T23:26:37.876Z,5.43
2017-08-18T23:29:05.934Z,7.33
2017-08-18T23:31:33.999Z,5.97
2017-08-18T23:34:02.085Z,7.53
2017-08-18T23:36:30.142Z,5.20
2017-08-18T23:38:58.210Z,7.00
2017-08-18T23:41:26.280Z,6.27
2017-08-18T23:43:54.363Z,7.80
2017-08-18T23:46:22.421Z,5.70
2017-08-18T23:48:50.490Z,4.93
2017-08-18T23:51:18.570Z,6.03
2017-08-18T23:53:46.636Z,7.80
2017-08-18T23:56:14.754Z,5.43
2017-08-18T23:58:42.815Z,3.30
